createdAt,value
2023-04-12T00:02:27.778Z,7.88
2023-04-12T00:04:58.047Z,7.84
2023-04-12T00:07:26.316Z,7.81
2023-04-12T00:09:54.238Z,7.78
2023-04-12T00:12:22.144Z,7.76
2023-04-12T00:14:49.841Z,7.74
2023-04-12T00:17:19.432Z,7.72
2023-04-12T00:19:47.820Z,7.69
2023-04-12T00:22:15.983Z,7.65
2023-04-12T00:24:43.831Z,7.63
2023-04-12T00:27:11.827Z,7.61
2023-04-12T00:29:40.014Z,7.60
2023-04-12T00:32:07.799Z,7.57
2023-04-12T00:34:38.162Z,7.56
2023-04-12T00:37:06.117Z,7.55
2023-04-12T00:39:34.019Z,7.55
2023-04-12T00:42:05.837Z,7.53
2023-04-12T00:44:34.297Z,7.49
2023-04-12T00:47:04.932Z,7.47
2023-04-12T00:49:34.054Z,7.43
2023-04-12T00:52:05.277Z,7.39
2023-04-12T00:54:36.688Z,7.36
2023-04-12T00:57:04.498Z,7.32
2023-04-12T00:59:32.843Z,7.26
2023-04-12T01:02:04.400Z,7.22
2023-04-12T01:04:34.726Z,7.16
2023-04-12T01:07:19.620Z,7.12
2023-04-12T01:09:58.384Z,7.08
2023-04-12T01:12:35.763Z,7.05
2023-04-12T01:15:26.754Z,7.03
2023-04-12T01:18:10.758Z,7.01
2023-04-12T01:20:48.474Z,7.01
2023-04-12T01:23:54.552Z,7.00
2023-04-12T01:26:45.268Z,6.97
2023-04-12T01:29:21.369Z,6.94
2023-04-12T01:32:01.348Z,6.92
2023-04-12T01:34:32.886Z,6.90
2023-04-12T01:37:02.616Z,6.85
2023-04-12T01:39:33.286Z,6.81
2023-04-12T01:42:01.086Z,6.76
2023-04-12T01:44:28.887Z,6.72
2023-04-12T01:46:56.790Z,6.70
2023-04-12T01:49:36.128Z,6.66
2023-04-12T01:52:12.804Z,6.63
2023-04-12T01:54:43.230Z,6.60
2023-04-12T01:57:11.515Z,6.57
2023-04-12T01:59:42.095Z,6.53
2023-04-12T02:02:12.074Z,6.50
2023-04-12T02:04:42.287Z,6.47
2023-04-12T02:07:10.113Z,6.42
2023-04-12T02:09:38.731Z,6.38
2023-04-12T02:12:07.915Z,6.33
2023-04-12T02:14:35.963Z,6.29
2023-04-12T02:17:04.759Z,6.26
2023-04-12T02:19:32.963Z,6.23
2023-04-12T02:22:01.181Z,6.21
2023-04-12T02:24:29.008Z,6.18
2023-04-12T02:26:59.186Z,6.15
2023-04-12T02:29:27.585Z,6.13
2023-04-12T02:31:55.634Z,6.10
2023-04-12T02:34:23.345Z,6.08
2023-04-12T02:36:51.256Z,6.05
2023-04-12T02:39:22.198Z,6.02
2023-04-12T02:41:50.609Z,5.99
2023-04-12T02:44:18.329Z,6.00
2023-04-12T02:46:46.056Z,5.98
2023-04-12T02:49:13.750Z,5.96
2023-04-12T02:51:42.410Z,5.94
2023-04-12T02:54:11.640Z,5.92
2023-04-12T02:56:39.455Z,5.91
2023-04-12T02:59:07.560Z,5.92
2023-04-12T03:01:35.507Z,5.94
2023-04-12T03:04:03.630Z,5.95
2023-04-12T03:06:32.201Z,5.96
2023-04-12T03:09:00.620Z,5.95
2023-04-12T03:11:28.367Z,5.94
2023-04-12T03:13:56.335Z,5.93
2023-04-12T03:16:30.171Z,5.92
2023-04-12T03:18:58.037Z,5.92
2023-04-12T03:21:26.436Z,5.92
2023-04-12T03:23:54.793Z,5.92
2023-04-12T03:26:22.847Z,5.90
2023-04-12T03:28:50.975Z,5.87
2023-04-12T03:31:21.736Z,5.85
2023-04-12T03:33:49.970Z,5.83
2023-04-12T03:36:17.814Z,5.80
2023-04-12T03:38:45.679Z,5.78
2023-04-12T03:41:13.548Z,5.76
2023-04-12T03:43:42.586Z,5.75
2023-04-12T03:46:10.822Z,5.74
2023-04-12T03:48:38.673Z,5.74
2023-04-12T03:51:07.835Z,5.74
2023-04-12T03:53:35.611Z,5.74
2023-04-12T03:56:12.646Z,5.74
2023-04-12T03:58:40.474Z,5.76
2023-04-12T04:01:09.417Z,5.77
2023-04-12T04:03:37.245Z,5.79
2023-04-12T04:06:05.513Z,5.81
2023-04-12T04:08:33.766Z,5.84
2023-04-12T04:11:01.759Z,5.86
2023-04-12T04:13:29.509Z,5.84
2023-04-12T04:16:04.602Z,5.83
2023-04-12T04:18:33.181Z,5.81
2023-04-12T04:21:01.004Z,5.81
2023-04-12T04:23:39.101Z,5.79
2023-04-12T04:26:11.512Z,5.80
2023-04-12T04:28:42.286Z,5.80
2023-04-12T04:31:10.765Z,5.80
2023-04-12T04:33:39.718Z,5.80
2023-04-12T04:36:09.472Z,5.80
2023-04-12T04:38:37.270Z,5.79
2023-04-12T04:41:05.812Z,5.79
2023-04-12T04:43:34.469Z,5.79
2023-04-12T04:46:02.481Z,5.78
2023-04-12T04:48:30.820Z,5.77
2023-04-12T04:51:00.878Z,5.78
2023-04-12T04:53:28.719Z,5.79
2023-04-12T04:56:01.484Z,5.82
2023-04-12T04:58:29.817Z,5.83
2023-04-12T05:00:58.038Z,5.84
2023-04-12T05:03:30.758Z,5.84
2023-04-12T05:05:59.069Z,5.85
2023-04-12T05:08:28.599Z,5.87
2023-04-12T05:10:57.767Z,5.89
2023-04-12T05:13:26.369Z,5.89
2023-04-12T05:15:54.226Z,5.90
2023-04-12T05:18:22.194Z,5.93
2023-04-12T05:20:50.069Z,5.96
2023-04-12T05:23:49.411Z,5.97
2023-04-12T05:26:17.566Z,5.98
2023-04-12T05:28:45.853Z,6.00
2023-04-12T05:31:13.800Z,6.01
2023-04-12T05:34:00.796Z,6.02
2023-04-12T05:36:35.941Z,6.04
2023-04-12T05:39:04.258Z,6.06
2023-04-12T05:41:32.107Z,6.09
2023-04-12T05:44:00.380Z,6.11
2023-04-12T05:46:28.182Z,6.15
2023-04-12T05:48:56.873Z,6.17
2023-04-12T05:51:37.826Z,6.19
2023-04-12T05:54:09.292Z,6.22
2023-04-12T05:56:37.851Z,6.25
2023-04-12T05:59:05.710Z,6.28
2023-04-12T06:01:34.627Z,6.33
2023-04-12T06:04:02.661Z,6.40
2023-04-12T06:06:31.627Z,6.44
2023-04-12T06:09:00.863Z,6.48
2023-04-12T06:11:29.208Z,6.51
2023-04-12T06:13:57.274Z,6.54
2023-04-12T06:16:25.267Z,6.56
2023-04-12T06:18:53.626Z,6.58
2023-04-12T06:21:21.733Z,6.58
2023-04-12T06:23:49.618Z,6.59
2023-04-12T06:26:18.575Z,6.61
2023-04-12T06:28:46.923Z,6.63
2023-04-12T06:31:17.174Z,6.64
2023-04-12T06:33:45.731Z,6.66
2023-04-12T06:36:15.729Z,6.68
2023-04-12T06:38:44.009Z,6.71
2023-04-12T06:41:12.440Z,6.74
2023-04-12T06:43:40.221Z,6.79
2023-04-12T06:46:09.200Z,6.84
2023-04-12T06:48:37.696Z,6.87
2023-04-12T06:51:08.176Z,6.91
2023-04-12T06:53:38.301Z,6.95
2023-04-12T06:56:06.400Z,6.98
2023-04-12T06:58:34.107Z,7.04
2023-04-12T07:01:10.285Z,7.16
2023-04-12T07:03:39.100Z,7.28
2023-04-12T07:06:17.806Z,7.36
2023-04-12T07:08:51.992Z,7.38
2023-04-12T07:11:22.560Z,7.36
2023-04-12T07:13:51.766Z,7.32
2023-04-12T07:16:20.585Z,7.30
2023-04-12T07:18:48.663Z,7.26
2023-04-12T07:21:17.773Z,7.22
2023-04-12T07:23:47.696Z,7.18
2023-04-12T07:26:15.883Z,7.16
2023-04-12T07:28:43.678Z,7.14
2023-04-12T07:31:12.024Z,7.15
2023-04-12T07:33:42.837Z,7.15
2023-04-12T07:36:46.037Z,7.15
2023-04-12T07:39:33.189Z,7.17
2023-04-12T07:42:01.583Z,7.16
2023-04-12T07:44:31.566Z,7.16
2023-04-12T07:46:59.347Z,7.19
2023-04-12T07:49:27.616Z,7.20
2023-04-12T07:51:55.762Z,7.21
2023-04-12T07:54:27.841Z,7.20
2023-04-12T07:57:03.949Z,7.20
2023-04-12T07:59:32.099Z,7.22
2023-04-12T08:02:02.092Z,7.26
2023-04-12T08:04:30.004Z,7.31
2023-04-12T08:06:57.731Z,7.32
2023-04-12T08:09:26.000Z,7.33
2023-04-12T08:11:54.272Z,7.34
2023-04-12T08:14:22.564Z,7.35
2023-04-12T08:16:50.382Z,7.35
2023-04-12T08:19:20.540Z,7.38
2023-04-12T08:21:48.303Z,7.41
2023-04-12T08:24:16.184Z,7.44
2023-04-12T08:26:44.553Z,7.49
2023-04-12T08:29:12.779Z,7.56
2023-04-12T08:31:41.151Z,7.64
2023-04-12T08:34:09.093Z,7.67
2023-04-12T08:36:37.357Z,7.67
2023-04-12T08:39:05.124Z,7.67
2023-04-12T08:41:36.489Z,7.69
2023-04-12T08:44:06.180Z,7.72
2023-04-12T08:46:37.092Z,7.76
2023-04-12T08:49:04.855Z,7.81
2023-04-12T08:51:33.905Z,7.87
2023-04-12T08:54:01.946Z,7.99
2023-04-12T08:56:30.570Z,8.08
2023-04-12T08:59:02.066Z,8.16
2023-04-12T09:01:30.151Z,8.21
2023-04-12T09:03:58.575Z,8.27
2023-04-12T09:06:27.332Z,8.31
2023-04-12T09:09:00.290Z,8.31
2023-04-12T09:11:29.597Z,8.28
2023-04-12T09:13:58.932Z,8.22
2023-04-12T09:16:50.096Z,8.16
2023-04-12T09:20:33.472Z,8.11
2023-04-12T09:23:40.881Z,8.09
2023-04-12T09:26:58.218Z,8.10
2023-04-12T09:30:25.623Z,8.08
2023-04-12T09:33:46.264Z,8.07
2023-04-12T09:36:16.981Z,8.05
2023-04-12T09:39:06.736Z,8.04
2023-04-12T09:41:35.119Z,8.02
2023-04-12T09:44:06.128Z,8.00
2023-04-12T09:46:55.914Z,8.01
2023-04-12T09:49:57.003Z,8.04
2023-04-12T09:54:30.634Z,8.05
2023-04-12T09:58:00.722Z,8.07
2023-04-12T10:00:49.487Z,8.18
2023-04-12T10:03:48.581Z,8.29
2023-04-12T10:06:49.324Z,8.41
2023-04-12T10:09:29.820Z,8.54
2023-04-12T10:13:01.379Z,8.61
2023-04-12T10:17:41.901Z,8.68
2023-04-12T10:20:49.963Z,8.73
2023-04-12T10:24:18.738Z,8.80
2023-04-12T10:27:14.829Z,8.97
2023-04-12T10:30:22.786Z,9.10
